sensor_id;sensor_type;location;lat;lon;timestamp;pressure;altitude;pressure_sealevel;temperature;humidity
61761;BME280;47664;51.660;-0.100;2023-03-18T00:00:18;99830.21;;;11.09;65.13
61761;BME280;47664;51.660;-0.100;2023-03-18T00:02:51;99829.17;;;10.87;64.21
61761;BME280;47664;51.660;-0.100;2023-03-18T00:05:24;99823.45;;;10.89;63.88
61761;BME280;47664;51.660;-0.100;2023-03-18T00:07:56;99829.22;;;10.95;64.29
61761;BME280;47664;51.660;-0.100;2023-03-18T00:10:28;99828.56;;;10.24;64.53
61761;BME280;47664;51.660;-0.100;2023-03-18T00:13:01;99830.91;;;10.42;64.79
61761;BME280;47664;51.660;-0.100;2023-03-18T00:15:34;99834.02;;;10.75;64.00
61761;BME280;47664;51.660;-0.100;2023-03-18T00:18:06;99837.56;;;11.35;63.78
61761;BME280;47664;51.660;-0.100;2023-03-18T00:20:38;99836.37;;;10.88;63.33
61761;BME280;47664;51.660;-0.100;2023-03-18T00:23:11;99836.51;;;11.27;62.63
61761;BME280;47664;51.660;-0.100;2023-03-18T00:25:45;99836.66;;;11.32;62.54
61761;BME280;47664;51.660;-0.100;2023-03-18T00:28:18;99838.33;;;11.39;62.15
61761;BME280;47664;51.660;-0.100;2023-03-18T00:30:51;99839.09;;;11.18;62.48
61761;BME280;47664;51.660;-0.100;2023-03-18T00:33:24;99840.45;;;11.25;62.25
61761;BME280;47664;51.660;-0.100;2023-03-18T00:35:56;99842.66;;;11.15;62.12
61761;BME280;47664;51.660;-0.100;2023-03-18T00:38:28;99840.74;;;10.97;62.19
61761;BME280;47664;51.660;-0.100;2023-03-18T00:41:00;99842.01;;;11.46;61.70
61761;BME280;47664;51.660;-0.100;2023-03-18T00:43:33;99842.96;;;10.18;62.97
61761;BME280;47664;51.660;-0.100;2023-03-18T00:46:05;99839.74;;;11.29;62.09
61761;BME280;47664;51.660;-0.100;2023-03-18T00:48:37;99835.87;;;11.31;62.05
61761;BME280;47664;51.660;-0.100;2023-03-18T00:51:09;99835.19;;;11.53;61.73
61761;BME280;47664;51.660;-0.100;2023-03-18T00:53:42;99832.61;;;11.04;62.73
61761;BME280;47664;51.660;-0.100;2023-03-18T00:56:14;99829.79;;;11.28;62.11
61761;BME280;47664;51.660;-0.100;2023-03-18T00:58:47;99830.71;;;11.16;61.97
61761;BME280;47664;51.660;-0.100;2023-03-18T01:01:21;99830.81;;;11.28;62.10
61761;BME280;47664;51.660;-0.100;2023-03-18T01:03:54;99836.01;;;11.18;61.79
61761;BME280;47664;51.660;-0.100;2023-03-18T01:06:24;99842.55;;;10.59;62.41
61761;BME280;47664;51.660;-0.100;2023-03-18T01:08:57;99845.14;;;10.75;62.72
61761;BME280;47664;51.660;-0.100;2023-03-18T01:11:30;99849.08;;;10.47;62.35
61761;BME280;47664;51.660;-0.100;2023-03-18T01:14:02;99848.56;;;11.08;62.05
61761;BME280;47664;51.660;-0.100;2023-03-18T01:16:34;99846.10;;;10.98;62.10
61761;BME280;47664;51.660;-0.100;2023-03-18T01:19:07;99847.06;;;11.08;61.70
61761;BME280;47664;51.660;-0.100;2023-03-18T01:21:39;99841.89;;;11.35;61.35
61761;BME280;47664;51.660;-0.100;2023-03-18T01:24:11;99840.30;;;11.69;61.45
61761;BME280;47664;51.660;-0.100;2023-03-18T01:26:43;99839.78;;;10.93;61.89
61761;BME280;47664;51.660;-0.100;2023-03-18T01:29:15;99837.26;;;10.99;61.83
61761;BME280;47664;51.660;-0.100;2023-03-18T01:31:48;99834.89;;;10.89;61.90
61761;BME280;47664;51.660;-0.100;2023-03-18T01:34:20;99828.00;;;10.88;62.04
61761;BME280;47664;51.660;-0.100;2023-03-18T01:36:52;99823.93;;;10.79;63.16
61761;BME280;47664;51.660;-0.100;2023-03-18T01:39:24;99821.55;;;10.17;64.08
61761;BME280;47664;51.660;-0.100;2023-03-18T01:41:56;99819.03;;;10.05;65.04
61761;BME280;47664;51.660;-0.100;2023-03-18T01:44:28;99816.57;;;10.13;65.01
61761;BME280;47664;51.660;-0.100;2023-03-18T01:47:01;99819.86;;;10.63;64.86
61761;BME280;47664;51.660;-0.100;2023-03-18T01:49:32;99819.55;;;9.39;65.50
61761;BME280;47664;51.660;-0.100;2023-03-18T01:52:08;99819.93;;;10.14;65.47
61761;BME280;47664;51.660;-0.100;2023-03-18T01:54:44;99821.53;;;9.76;65.76
61761;BME280;47664;51.660;-0.100;2023-03-18T01:57:17;99817.62;;;10.05;66.76
61761;BME280;47664;51.660;-0.100;2023-03-18T01:59:52;99813.84;;;9.58;66.78
61761;BME280;47664;51.660;-0.100;2023-03-18T02:02:26;99816.74;;;10.05;66.37
61761;BME280;47664;51.660;-0.100;2023-03-18T02:05:01;99816.20;;;9.92;66.56
61761;BME280;47664;51.660;-0.100;2023-03-18T02:07:35;99811.96;;;9.86;66.37
61761;BME280;47664;51.660;-0.100;2023-03-18T02:10:10;99814.80;;;10.05;65.57
61761;BME280;47664;51.660;-0.100;2023-03-18T02:12:45;99810.10;;;9.74;66.14
61761;BME280;47664;51.660;-0.100;2023-03-18T02:15:20;99808.47;;;9.91;65.86
61761;BME280;47664;51.660;-0.100;2023-03-18T02:17:53;99808.32;;;10.06;66.00
61761;BME280;47664;51.660;-0.100;2023-03-18T02:20:30;99804.44;;;9.49;66.42
61761;BME280;47664;51.660;-0.100;2023-03-18T02:23:12;99802.40;;;9.51;67.34
61761;BME280;47664;51.660;-0.100;2023-03-18T02:25:51;99801.54;;;9.67;66.64
61761;BME280;47664;51.660;-0.100;2023-03-18T02:28:27;99801.24;;;9.12;67.30
61761;BME280;47664;51.660;-0.100;2023-03-18T02:31:04;99801.34;;;9.60;67.49
61761;BME280;47664;51.660;-0.100;2023-03-18T02:33:41;99802.62;;;9.47;67.75
61761;BME280;47664;51.660;-0.100;2023-03-18T02:36:12;99803.29;;;9.59;68.23
61761;BME280;47664;51.660;-0.100;2023-03-18T02:38:46;99801.11;;;9.61;67.62
61761;BME280;47664;51.660;-0.100;2023-03-18T02:41:21;99801.09;;;9.32;68.22
61761;BME280;47664;51.660;-0.100;2023-03-18T02:43:54;99801.23;;;9.15;68.70
61761;BME280;47664;51.660;-0.100;2023-03-18T02:46:28;99800.03;;;9.26;68.94
61761;BME280;47664;51.660;-0.100;2023-03-18T02:49:04;99801.43;;;9.69;68.83
61761;BME280;47664;51.660;-0.100;2023-03-18T02:51:37;99800.86;;;8.92;69.56
61761;BME280;47664;51.660;-0.100;2023-03-18T02:54:12;99803.12;;;9.07;68.81
61761;BME280;47664;51.660;-0.100;2023-03-18T02:56:45;99801.27;;;9.26;68.51
61761;BME280;47664;51.660;-0.100;2023-03-18T02:59:18;99804.22;;;9.49;67.95
61761;BME280;47664;51.660;-0.100;2023-03-18T03:01:52;99805.52;;;9.69;67.28
61761;BME280;47664;51.660;-0.100;2023-03-18T03:04:26;99805.46;;;9.49;67.15
61761;BME280;47664;51.660;-0.100;2023-03-18T03:06:59;99812.25;;;9.96;66.99
61761;BME280;47664;51.660;-0.100;2023-03-18T03:09:31;99813.39;;;9.90;67.12
61761;BME280;47664;51.660;-0.100;2023-03-18T03:12:03;99811.18;;;9.90;67.11
61761;BME280;47664;51.660;-0.100;2023-03-18T03:14:36;99812.15;;;9.28;67.47
61761;BME280;47664;51.660;-0.100;2023-03-18T03:17:08;99810.26;;;9.56;67.40
61761;BME280;47664;51.660;-0.100;2023-03-18T03:19:40;99814.26;;;9.53;67.12
61761;BME280;47664;51.660;-0.100;2023-03-18T03:22:12;99816.32;;;9.83;66.94
61761;BME280;47664;51.660;-0.100;2023-03-18T03:24:44;99816.22;;;10.00;66.70
61761;BME280;47664;51.660;-0.100;2023-03-18T03:27:16;99814.17;;;10.01;66.06
61761;BME280;47664;51.660;-0.100;2023-03-18T03:29:48;99816.90;;;10.08;66.32
61761;BME280;47664;51.660;-0.100;2023-03-18T03:32:20;99816.85;;;10.01;66.06
61761;BME280;47664;51.660;-0.100;2023-03-18T03:34:53;99814.50;;;10.04;66.28
61761;BME280;47664;51.660;-0.100;2023-03-18T03:37:26;99817.72;;;9.82;65.50
61761;BME280;47664;51.660;-0.100;2023-03-18T03:39:57;99816.71;;;10.46;65.25
61761;BME280;47664;51.660;-0.100;2023-03-18T03:42:29;99817.28;;;10.11;64.72
61761;BME280;47664;51.660;-0.100;2023-03-18T03:45:02;99819.67;;;10.36;65.18
61761;BME280;47664;51.660;-0.100;2023-03-18T03:47:34;99821.54;;;10.19;65.58
61761;BME280;47664;51.660;-0.100;2023-03-18T03:50:06;99823.54;;;10.41;65.89
61761;BME280;47664;51.660;-0.100;2023-03-18T03:52:39;99820.73;;;9.93;65.89
61761;BME280;47664;51.660;-0.100;2023-03-18T03:55:15;99822.15;;;10.71;65.85
61761;BME280;47664;51.660;-0.100;2023-03-18T03:57:48;99824.88;;;10.11;66.14
61761;BME280;47664;51.660;-0.100;2023-03-18T04:00:18;99824.68;;;10.10;66.25
61761;BME280;47664;51.660;-0.100;2023-03-18T04:02:52;99826.49;;;10.08;66.32
61761;BME280;47664;51.660;-0.100;2023-03-18T04:05:26;99829.60;;;9.98;66.75
61761;BME280;47664;51.660;-0.100;2023-03-18T04:07:58;99829.35;;;10.31;66.49
61761;BME280;47664;51.660;-0.100;2023-03-18T04:10:31;99829.04;;;9.78;66.18
61761;BME280;47664;51.660;-0.100;2023-03-18T04:13:03;99829.93;;;10.38;65.83
61761;BME280;47664;51.660;-0.100;2023-03-18T04:15:35;99827.18;;;10.61;65.14
61761;BME280;47664;51.660;-0.100;2023-03-18T04:18:07;99829.49;;;10.25;65.75
61761;BME280;47664;51.660;-0.100;2023-03-18T04:20:40;99829.97;;;10.31;65.78
61761;BME280;47664;51.660;-0.100;2023-03-18T04:23:12;99830.69;;;10.10;66.20
61761;BME280;47664;51.660;-0.100;2023-03-18T04:25:45;99827.33;;;10.17;66.82
61761;BME280;47664;51.660;-0.100;2023-03-18T04:28:17;99827.98;;;10.32;66.31
61761;BME280;47664;51.660;-0.100;2023-03-18T04:30:49;99828.54;;;10.03;66.65
61761;BME280;47664;51.660;-0.100;2023-03-18T04:33:22;99830.37;;;9.97;67.45
61761;BME280;47664;51.660;-0.100;2023-03-18T04:35:54;99833.33;;;9.97;67.44
61761;BME280;47664;51.660;-0.100;2023-03-18T04:38:27;99835.85;;;10.30;66.66
61761;BME280;47664;51.660;-0.100;2023-03-18T04:40:59;99837.12;;;10.46;66.23
61761;BME280;47664;51.660;-0.100;2023-03-18T04:43:31;99839.53;;;10.40;65.64
61761;BME280;47664;51.660;-0.100;2023-03-18T04:46:03;99841.46;;;10.34;65.69
61761;BME280;47664;51.660;-0.100;2023-03-18T04:48:36;99842.17;;;10.21;66.19
61761;BME280;47664;51.660;-0.100;2023-03-18T04:51:10;99840.78;;;10.35;65.67
61761;BME280;47664;51.660;-0.100;2023-03-18T04:53:43;99837.72;;;10.30;65.56
61761;BME280;47664;51.660;-0.100;2023-03-18T04:56:16;99838.22;;;10.67;64.95
61761;BME280;47664;51.660;-0.100;2023-03-18T04:58:48;99835.43;;;10.56;64.48
61761;BME280;47664;51.660;-0.100;2023-03-18T05:01:20;99832.52;;;10.47;64.90
61761;BME280;47664;51.660;-0.100;2023-03-18T05:03:52;99835.94;;;10.51;64.73
61761;BME280;47664;51.660;-0.100;2023-03-18T05:06:27;99835.63;;;10.32;64.99
61761;BME280;47664;51.660;-0.100;2023-03-18T05:08:59;99836.40;;;10.61;64.48
61761;BME280;47664;51.660;-0.100;2023-03-18T05:11:31;99834.06;;;10.20;64.43
61761;BME280;47664;51.660;-0.100;2023-03-18T05:14:03;99832.79;;;10.81;64.40
61761;BME280;47664;51.660;-0.100;2023-03-18T05:16:36;99833.61;;;10.25;64.27
61761;BME280;47664;51.660;-0.100;2023-03-18T05:19:08;99832.58;;;10.72;64.30
61761;BME280;47664;51.660;-0.100;2023-03-18T05:21:40;99832.37;;;10.20;64.92
61761;BME280;47664;51.660;-0.100;2023-03-18T05:24:12;99833.78;;;10.45;65.50
61761;BME280;47664;51.660;-0.100;2023-03-18T05:26:44;99834.59;;;10.29;65.66
61761;BME280;47664;51.660;-0.100;2023-03-18T05:29:16;99829.28;;;10.61;65.49
61761;BME280;47664;51.660;-0.100;2023-03-18T05:31:49;99827.47;;;10.09;65.57
61761;BME280;47664;51.660;-0.100;2023-03-18T05:34:21;99821.91;;;10.26;65.66
61761;BME280;47664;51.660;-0.100;2023-03-18T05:36:52;99817.73;;;10.24;65.84
61761;BME280;47664;51.660;-0.100;2023-03-18T05:39:25;99809.49;;;9.91;66.05
61761;BME280;47664;51.660;-0.100;2023-03-18T05:41:57;99806.86;;;9.93;66.97
61761;BME280;47664;51.660;-0.100;2023-03-18T05:44:30;99803.52;;;9.30;67.90
61761;BME280;47664;51.660;-0.100;2023-03-18T05:47:03;99804.67;;;9.84;67.50
61761;BME280;47664;51.660;-0.100;2023-03-18T05:49:35;99806.56;;;9.66;66.75
61761;BME280;47664;51.660;-0.100;2023-03-18T05:52:08;99807.29;;;10.24;66.42
61761;BME280;47664;51.660;-0.100;2023-03-18T05:54:40;99807.41;;;9.69;66.83
61761;BME280;47664;51.660;-0.100;2023-03-18T05:57:12;99809.59;;;10.11;67.44
61761;BME280;47664;51.660;-0.100;2023-03-18T05:59:44;99803.40;;;9.64;67.88
61761;BME280;47664;51.660;-0.100;2023-03-18T06:02:16;99805.80;;;9.74;67.58
61761;BME280;47664;51.660;-0.100;2023-03-18T06:04:48;99810.09;;;9.42;68.90
61761;BME280;47664;51.660;-0.100;2023-03-18T06:07:20;99810.29;;;9.30;69.56
61761;BME280;47664;51.660;-0.100;2023-03-18T06:09:53;99816.54;;;9.28;69.11
61761;BME280;47664;51.660;-0.100;2023-03-18T06:12:25;99821.89;;;9.31;68.75
61761;BME280;47664;51.660;-0.100;2023-03-18T06:14:57;99828.35;;;9.80;68.39
61761;BME280;47664;51.660;-0.100;2023-03-18T06:17:29;99833.72;;;9.35;68.21
61761;BME280;47664;51.660;-0.100;2023-03-18T06:20:01;99835.92;;;9.61;68.87
61761;BME280;47664;51.660;-0.100;2023-03-18T06:22:33;99838.41;;;9.16;68.17
61761;BME280;47664;51.660;-0.100;2023-03-18T06:25:06;99841.25;;;9.84;68.33
61761;BME280;47664;51.660;-0.100;2023-03-18T06:27:38;99835.97;;;9.08;69.33
61761;BME280;47664;51.660;-0.100;2023-03-18T06:30:10;99833.11;;;9.47;69.22
61761;BME280;47664;51.660;-0.100;2023-03-18T06:32:43;99829.34;;;9.67;67.64
61761;BME280;47664;51.660;-0.100;2023-03-18T06:35:16;99832.61;;;10.50;66.78
61761;BME280;47664;51.660;-0.100;2023-03-18T06:37:48;99835.02;;;10.06;66.41
61761;BME280;47664;51.660;-0.100;2023-03-18T06:40:20;99842.48;;;10.18;66.44
61761;BME280;47664;51.660;-0.100;2023-03-18T06:42:53;99845.75;;;10.26;65.73
61761;BME280;47664;51.660;-0.100;2023-03-18T06:45:25;99847.52;;;10.00;66.32
61761;BME280;47664;51.660;-0.100;2023-03-18T06:47:57;99851.14;;;10.45;65.77
61761;BME280;47664;51.660;-0.100;2023-03-18T06:50:30;99853.05;;;9.79;65.67
61761;BME280;47664;51.660;-0.100;2023-03-18T06:53:01;99857.44;;;10.74;65.14
61761;BME280;47664;51.660;-0.100;2023-03-18T06:55:33;99859.68;;;9.90;65.49
61761;BME280;47664;51.660;-0.100;2023-03-18T06:58:05;99858.26;;;10.24;65.31
61761;BME280;47664;51.660;-0.100;2023-03-18T07:00:37;99859.31;;;9.54;66.09
61761;BME280;47664;51.660;-0.100;2023-03-18T07:03:10;99860.41;;;10.58;65.44
61761;BME280;47664;51.660;-0.100;2023-03-18T07:05:42;99861.30;;;10.32;65.49
61761;BME280;47664;51.660;-0.100;2023-03-18T07:08:14;99864.13;;;10.33;65.95
61761;BME280;47664;51.660;-0.100;2023-03-18T07:10:47;99868.08;;;9.93;67.57
61761;BME280;47664;51.660;-0.100;2023-03-18T07:13:18;99868.35;;;10.15;67.45
61761;BME280;47664;51.660;-0.100;2023-03-18T07:15:51;99869.52;;;10.20;66.38
61761;BME280;47664;51.660;-0.100;2023-03-18T07:18:23;99867.16;;;10.41;65.54
61761;BME280;47664;51.660;-0.100;2023-03-18T07:20:56;99869.44;;;10.57;65.23
61761;BME280;47664;51.660;-0.100;2023-03-18T07:23:28;99874.59;;;9.74;65.71
61761;BME280;47664;51.660;-0.100;2023-03-18T07:26:00;99875.40;;;10.09;66.67
61761;BME280;47664;51.660;-0.100;2023-03-18T07:28:32;99875.19;;;9.87;65.83
61761;BME280;47664;51.660;-0.100;2023-03-18T07:31:05;99877.22;;;10.44;65.15
61761;BME280;47664;51.660;-0.100;2023-03-18T07:33:37;99875.57;;;9.96;65.59
61761;BME280;47664;51.660;-0.100;2023-03-18T07:36:10;99875.88;;;10.32;65.54
61761;BME280;47664;51.660;-0.100;2023-03-18T07:38:43;99877.99;;;9.94;65.82
61761;BME280;47664;51.660;-0.100;2023-03-18T07:41:15;99879.29;;;10.19;65.74
61761;BME280;47664;51.660;-0.100;2023-03-18T07:43:47;99882.06;;;10.42;65.17
61761;BME280;47664;51.660;-0.100;2023-03-18T07:46:19;99883.90;;;10.51;65.54
61761;BME280;47664;51.660;-0.100;2023-03-18T07:48:52;99884.86;;;10.25;65.86
61761;BME280;47664;51.660;-0.100;2023-03-18T07:51:25;99884.79;;;10.26;66.07
61761;BME280;47664;51.660;-0.100;2023-03-18T07:53:57;99890.79;;;10.12;66.86
61761;BME280;47664;51.660;-0.100;2023-03-18T07:56:30;99889.71;;;9.43;67.88
61761;BME280;47664;51.660;-0.100;2023-03-18T07:59:02;99888.50;;;9.66;69.18
61761;BME280;47664;51.660;-0.100;2023-03-18T08:01:35;99887.18;;;9.37;70.15
61761;BME280;47664;51.660;-0.100;2023-03-18T08:04:07;99886.88;;;9.61;70.13
61761;BME280;47664;51.660;-0.100;2023-03-18T08:06:39;99888.16;;;9.36;70.75
61761;BME280;47664;51.660;-0.100;2023-03-18T08:09:11;99890.42;;;9.25;71.00
61761;BME280;47664;51.660;-0.100;2023-03-18T08:11:43;99889.19;;;9.63;70.40
61761;BME280;47664;51.660;-0.100;2023-03-18T08:14:15;99896.54;;;9.92;69.59
61761;BME280;47664;51.660;-0.100;2023-03-18T08:16:47;99896.80;;;9.74;69.66
61761;BME280;47664;51.660;-0.100;2023-03-18T08:19:19;99896.97;;;9.64;70.05
61761;BME280;47664;51.660;-0.100;2023-03-18T08:21:51;99898.13;;;9.77;70.01
61761;BME280;47664;51.660;-0.100;2023-03-18T08:24:24;99896.28;;;9.56;70.39
61761;BME280;47664;51.660;-0.100;2023-03-18T08:26:56;99901.14;;;9.47;70.98
61761;BME280;47664;51.660;-0.100;2023-03-18T08:29:28;99897.91;;;9.21;70.34
61761;BME280;47664;51.660;-0.100;2023-03-18T08:32:00;99898.54;;;9.54;70.32
61761;BME280;47664;51.660;-0.100;2023-03-18T08:34:32;99901.52;;;9.04;70.07
61761;BME280;47664;51.660;-0.100;2023-03-18T08:37:04;99905.96;;;9.96;70.11
61761;BME280;47664;51.660;-0.100;2023-03-18T08:39:36;99907.68;;;9.54;70.06
61761;BME280;47664;51.660;-0.100;2023-03-18T08:42:08;99908.22;;;9.73;69.72
61761;BME280;47664;51.660;-0.100;2023-03-18T08:44:41;99903.66;;;9.42;70.06
61761;BME280;47664;51.660;-0.100;2023-03-18T08:47:13;99907.47;;;9.44;70.85
61761;BME280;47664;51.660;-0.100;2023-03-18T08:49:45;99902.98;;;9.50;70.28
61761;BME280;47664;51.660;-0.100;2023-03-18T08:52:17;99901.28;;;9.82;68.96
61761;BME280;47664;51.660;-0.100;2023-03-18T08:54:50;99900.55;;;9.52;69.70
61761;BME280;47664;51.660;-0.100;2023-03-18T08:57:22;99898.44;;;9.62;69.41
61761;BME280;47664;51.660;-0.100;2023-03-18T08:59:55;99895.38;;;9.58;69.98
61761;BME280;47664;51.660;-0.100;2023-03-18T09:02:27;99892.39;;;9.26;69.08
61761;BME280;47664;51.660;-0.100;2023-03-18T09:04:59;99893.45;;;9.65;68.98
61761;BME280;47664;51.660;-0.100;2023-03-18T09:07:31;99891.04;;;9.27;68.56
61761;BME280;47664;51.660;-0.100;2023-03-18T09:10:04;99891.85;;;9.98;67.38
61761;BME280;47664;51.660;-0.100;2023-03-18T09:12:37;99893.18;;;9.64;67.51
61761;BME280;47664;51.660;-0.100;2023-03-18T09:15:11;99892.30;;;9.58;68.73
61761;BME280;47664;51.660;-0.100;2023-03-18T09:17:43;99890.35;;;9.84;68.38
61761;BME280;47664;51.660;-0.100;2023-03-18T09:20:18;99885.13;;;9.77;68.35
61761;BME280;47664;51.660;-0.100;2023-03-18T09:22:50;99883.94;;;9.73;67.94
61761;BME280;47664;51.660;-0.100;2023-03-18T09:25:23;99884.02;;;9.98;67.69
61761;BME280;47664;51.660;-0.100;2023-03-18T09:27:55;99885.10;;;10.02;67.29
61761;BME280;47664;51.660;-0.100;2023-03-18T09:30:28;99884.50;;;9.79;67.20
61761;BME280;47664;51.660;-0.100;2023-03-18T09:33:00;99887.75;;;10.25;66.24
61761;BME280;47664;51.660;-0.100;2023-03-18T09:35:32;99892.08;;;9.50;66.67
61761;BME280;47664;51.660;-0.100;2023-03-18T09:38:05;99888.96;;;10.20;66.96
61761;BME280;47664;51.660;-0.100;2023-03-18T09:40:40;99891.15;;;9.75;67.41
61761;BME280;47664;51.660;-0.100;2023-03-18T09:43:21;99890.14;;;10.13;67.17
61761;BME280;47664;51.660;-0.100;2023-03-18T09:45:59;99887.92;;;10.07;67.06
61761;BME280;47664;51.660;-0.100;2023-03-18T09:48:40;99889.98;;;9.54;67.14
61761;BME280;47664;51.660;-0.100;2023-03-18T09:51:19;99885.89;;;10.17;65.92
61761;BME280;47664;51.660;-0.100;2023-03-18T09:53:59;99890.84;;;10.32;65.75
61761;BME280;47664;51.660;-0.100;2023-03-18T09:56:36;99893.88;;;10.10;66.15
61761;BME280;47664;51.660;-0.100;2023-03-18T09:59:15;99897.30;;;10.15;65.73
61761;BME280;47664;51.660;-0.100;2023-03-18T10:01:45;99900.24;;;9.95;66.68
61761;BME280;47664;51.660;-0.100;2023-03-18T10:04:23;99900.22;;;10.05;66.51
61761;BME280;47664;51.660;-0.100;2023-03-18T10:07:00;99903.77;;;10.59;66.40
61761;BME280;47664;51.660;-0.100;2023-03-18T10:09:36;99905.64;;;10.05;66.51
61761;BME280;47664;51.660;-0.100;2023-03-18T10:12:13;99903.09;;;10.79;65.43
61761;BME280;47664;51.660;-0.100;2023-03-18T10:14:47;99905.03;;;10.26;65.63
61761;BME280;47664;51.660;-0.100;2023-03-18T10:17:23;99902.14;;;10.30;65.61
61761;BME280;47664;51.660;-0.100;2023-03-18T10:19:58;99901.64;;;10.81;65.05
61761;BME280;47664;51.660;-0.100;2023-03-18T10:22:40;99903.39;;;10.03;64.92
61761;BME280;47664;51.660;-0.100;2023-03-18T10:25:16;99904.81;;;10.46;64.13
61761;BME280;47664;51.660;-0.100;2023-03-18T10:27:52;99906.26;;;10.39;64.72
61761;BME280;47664;51.660;-0.100;2023-03-18T10:30:34;99907.68;;;9.86;65.54
61761;BME280;47664;51.660;-0.100;2023-03-18T10:33:12;99908.08;;;10.61;65.43
61761;BME280;47664;51.660;-0.100;2023-03-18T10:35:47;99906.35;;;10.40;64.45
61761;BME280;47664;51.660;-0.100;2023-03-18T10:38:18;99904.88;;;10.76;64.50
61761;BME280;47664;51.660;-0.100;2023-03-18T10:40:54;99904.48;;;10.61;64.12
61761;BME280;47664;51.660;-0.100;2023-03-18T10:43:24;99905.70;;;9.92;64.40
61761;BME280;47664;51.660;-0.100;2023-03-18T10:45:58;99906.77;;;10.66;63.97
61761;BME280;47664;51.660;-0.100;2023-03-18T10:48:33;99909.97;;;10.19;64.59
61761;BME280;47664;51.660;-0.100;2023-03-18T10:51:08;99906.07;;;10.89;64.15
61761;BME280;47664;51.660;-0.100;2023-03-18T10:53:43;99910.16;;;10.86;63.53
61761;BME280;47664;51.660;-0.100;2023-03-18T10:56:18;99907.25;;;11.07;62.05
61761;BME280;47664;51.660;-0.100;2023-03-18T10:58:50;99911.26;;;11.59;61.76
61761;BME280;47664;51.660;-0.100;2023-03-18T11:01:24;99913.12;;;11.25;60.47
61761;BME280;47664;51.660;-0.100;2023-03-18T11:03:59;99915.17;;;11.44;60.87
61761;BME280;47664;51.660;-0.100;2023-03-18T11:06:35;99913.80;;;10.80;60.37
61761;BME280;47664;51.660;-0.100;2023-03-18T11:09:15;99914.07;;;11.24;58.86
61761;BME280;47664;51.660;-0.100;2023-03-18T11:11:49;99912.90;;;11.31;60.43
61761;BME280;47664;51.660;-0.100;2023-03-18T11:14:27;99911.08;;;10.73;62.19
61761;BME280;47664;51.660;-0.100;2023-03-18T11:17:02;99912.55;;;11.03;61.89
61761;BME280;47664;51.660;-0.100;2023-03-18T11:19:36;99914.30;;;10.96;60.85
61761;BME280;47664;51.660;-0.100;2023-03-18T11:22:14;99913.67;;;10.81;60.89
61761;BME280;47664;51.660;-0.100;2023-03-18T11:25:11;99914.11;;;10.50;61.38
61761;BME280;47664;51.660;-0.100;2023-03-18T11:27:45;99912.22;;;10.74;61.11
61761;BME280;47664;51.660;-0.100;2023-03-18T11:30:20;99909.59;;;10.34;61.49
61761;BME280;47664;51.660;-0.100;2023-03-18T11:32:52;99911.49;;;10.68;60.99
61761;BME280;47664;51.660;-0.100;2023-03-18T11:35:31;99913.62;;;10.66;62.01
61761;BME280;47664;51.660;-0.100;2023-03-18T11:38:02;99910.60;;;10.98;62.80
61761;BME280;47664;51.660;-0.100;2023-03-18T11:40:35;99912.07;;;10.73;60.86
61761;BME280;47664;51.660;-0.100;2023-03-18T11:43:16;99911.95;;;11.36;60.72
61761;BME280;47664;51.660;-0.100;2023-03-18T11:45:49;99914.58;;;11.40;60.64
61761;BME280;47664;51.660;-0.100;2023-03-18T11:48:28;99916.75;;;11.84;60.50
61761;BME280;47664;51.660;-0.100;2023-03-18T11:51:11;99915.30;;;11.44;60.50
61761;BME280;47664;51.660;-0.100;2023-03-18T11:53:54;99913.67;;;11.41;59.50
61761;BME280;47664;51.660;-0.100;2023-03-18T11:56:28;99914.36;;;11.11;60.58
61761;BME280;47664;51.660;-0.100;2023-03-18T11:59:12;99915.17;;;11.65;58.88
61761;BME280;47664;51.660;-0.100;2023-03-18T12:01:52;99918.27;;;11.67;59.02
61761;BME280;47664;51.660;-0.100;2023-03-18T12:04:39;99916.03;;;11.80;57.67
61761;BME280;47664;51.660;-0.100;2023-03-18T12:07:24;99915.38;;;11.60;58.25
61761;BME280;47664;51.660;-0.100;2023-03-18T12:10:00;99913.79;;;11.68;59.14
61761;BME280;47664;51.660;-0.100;2023-03-18T12:12:45;99909.98;;;11.89;58.91
61761;BME280;47664;51.660;-0.100;2023-03-18T12:15:23;99907.03;;;12.04;59.28
61761;BME280;47664;51.660;-0.100;2023-03-18T12:18:04;99903.28;;;12.00;59.63
61761;BME280;47664;51.660;-0.100;2023-03-18T12:20:42;99904.64;;;11.59;59.34
61761;BME280;47664;51.660;-0.100;2023-03-18T12:23:29;99901.15;;;12.18;59.77
61761;BME280;47664;51.660;-0.100;2023-03-18T12:26:09;99909.44;;;11.84;59.67
61761;BME280;47664;51.660;-0.100;2023-03-18T12:28:46;99905.53;;;12.08;59.86
61761;BME280;47664;51.660;-0.100;2023-03-18T12:31:31;99899.71;;;12.65;58.84
61761;BME280;47664;51.660;-0.100;2023-03-18T12:34:11;99901.45;;;12.39;58.95
61761;BME280;47664;51.660;-0.100;2023-03-18T12:36:56;99899.95;;;12.48;58.48
61761;BME280;47664;51.660;-0.100;2023-03-18T12:39:47;99898.39;;;11.60;58.93
61761;BME280;47664;51.660;-0.100;2023-03-18T12:42:27;99901.56;;;12.42;58.32
61761;BME280;47664;51.660;-0.100;2023-03-18T12:45:08;99900.64;;;12.26;57.93
61761;BME280;47664;51.660;-0.100;2023-03-18T12:47:44;99896.93;;;12.61;56.49
61761;BME280;47664;51.660;-0.100;2023-03-18T12:50:21;99897.40;;;13.19;55.85
61761;BME280;47664;51.660;-0.100;2023-03-18T12:52:54;99896.76;;;12.79;55.61
61761;BME280;47664;51.660;-0.100;2023-03-18T12:55:30;99902.55;;;12.64;56.52
61761;BME280;47664;51.660;-0.100;2023-03-18T12:58:06;99901.02;;;12.44;55.72
61761;BME280;47664;51.660;-0.100;2023-03-18T13:00:41;99905.46;;;12.69;55.78
61761;BME280;47664;51.660;-0.100;2023-03-18T13:03:23;99905.72;;;12.21;55.53
61761;BME280;47664;51.660;-0.100;2023-03-18T13:06:01;99904.21;;;12.67;55.83
61761;BME280;47664;51.660;-0.100;2023-03-18T13:08:45;99906.54;;;12.23;56.00
61761;BME280;47664;51.660;-0.100;2023-03-18T13:11:44;99906.99;;;13.13;55.86
61761;BME280;47664;51.660;-0.100;2023-03-18T13:14:25;99907.97;;;12.56;57.03
61761;BME280;47664;51.660;-0.100;2023-03-18T13:16:59;99906.54;;;12.53;56.67
61761;BME280;47664;51.660;-0.100;2023-03-18T13:19:34;99907.35;;;12.01;56.17
61761;BME280;47664;51.660;-0.100;2023-03-18T13:22:13;99909.38;;;12.65;55.17
61761;BME280;47664;51.660;-0.100;2023-03-18T13:24:55;99908.63;;;12.91;55.20
61761;BME280;47664;51.660;-0.100;2023-03-18T13:27:54;99912.94;;;12.01;57.09